FD45 weather

Fort Walton Beach Medical Ctr Heliport
Fort Walton Beach, Florida, United States

Public forecast

Using degrees Fahrenheit for public forecast. Weather courtesy of forecast.io.

METAR (pilot weather report)

Closest report is Hurlburt Field, 3.2 nm (5.9 km) WSW. Retrieved 2017/10/22 08:56 UTC (19 minutes ago):

KHRT 220856Z 10008KT 10SM CLR 22/18 A3007 RMK AO2A SLP184 T02200184 57014 $

TAF (pilot weather forecast)

Closest forecast is Hurlburt Field, 3.2 nm (5.9 km) WSW. Retrieved 2017/10/22 09:03 UTC (12 minutes ago):

TAF KHRT 220900Z 2209/2315 11006KT 9999 SCT030 QNH3007INS BECMG 2214/2215 13012G20KT 9999 FEW015 SCT025 BKN150 QNH3002INS BECMG 2223/2224 13010KT 9999 BKN025 QNH2996INS BECMG 2305/2306 13009KT 8000 -SHRA BKN015 OVC150 QNH2992INS TEMPO 2306/2308 13010G15KT 4800 -TSRA BKN010CB TX27/2220Z TN20/2211Z